sensor_id;sensor_type;location;lat;lon;timestamp;P1;durP1;ratioP1;P2;durP2;ratioP2
13222;SDS011;6676;45.192;5.722;2023-10-19T00:01:37;11.73;;;9.50;;
13222;SDS011;6676;45.192;5.722;2023-10-19T00:04:29;12.15;;;9.40;;
13222;SDS011;6676;45.192;5.722;2023-10-19T00:07:22;12.10;;;9.25;;
13222;SDS011;6676;45.192;5.722;2023-10-19T00:10:14;11.65;;;9.18;;
13222;SDS011;6676;45.192;5.722;2023-10-19T00:13:06;11.00;;;9.60;;
13222;SDS011;6676;45.192;5.722;2023-10-19T00:16:00;13.00;;;9.60;;
13222;SDS011;6676;45.192;5.722;2023-10-19T00:18:54;12.68;;;9.83;;
13222;SDS011;6676;45.192;5.722;2023-10-19T00:21:47;12.35;;;10.13;;
13222;SDS011;6676;45.192;5.722;2023-10-19T00:24:40;12.75;;;10.08;;
13222;SDS011;6676;45.192;5.722;2023-10-19T00:27:32;10.88;;;9.25;;
13222;SDS011;6676;45.192;5.722;2023-10-19T00:30:24;18.52;;;9.65;;
13222;SDS011;6676;45.192;5.722;2023-10-19T00:33:17;11.03;;;9.93;;
13222;SDS011;6676;45.192;5.722;2023-10-19T00:36:10;13.65;;;10.20;;
13222;SDS011;6676;45.192;5.722;2023-10-19T00:39:02;11.30;;;9.28;;
13222;SDS011;6676;45.192;5.722;2023-10-19T00:41:57;12.25;;;9.45;;
13222;SDS011;6676;45.192;5.722;2023-10-19T00:44:51;13.83;;;9.93;;
13222;SDS011;6676;45.192;5.722;2023-10-19T00:47:44;10.30;;;9.08;;
13222;SDS011;6676;45.192;5.722;2023-10-19T00:50:38;10.00;;;8.68;;
13222;SDS011;6676;45.192;5.722;2023-10-19T00:53:29;9.23;;;7.55;;
13222;SDS011;6676;45.192;5.722;2023-10-19T00:56:21;10.30;;;7.62;;
13222;SDS011;6676;45.192;5.722;2023-10-19T00:59:17;9.48;;;7.65;;
13222;SDS011;6676;45.192;5.722;2023-10-19T01:02:12;10.03;;;7.70;;
13222;SDS011;6676;45.192;5.722;2023-10-19T01:05:09;9.35;;;7.45;;
13222;SDS011;6676;45.192;5.722;2023-10-19T01:08:03;10.32;;;6.90;;
13222;SDS011;6676;45.192;5.722;2023-10-19T01:10:59;9.93;;;7.72;;
13222;SDS011;6676;45.192;5.722;2023-10-19T01:13:53;9.93;;;6.90;;
13222;SDS011;6676;45.192;5.722;2023-10-19T01:16:44;8.28;;;6.53;;
13222;SDS011;6676;45.192;5.722;2023-10-19T01:19:36;9.10;;;7.72;;
13222;SDS011;6676;45.192;5.722;2023-10-19T01:22:29;13.18;;;7.80;;
13222;SDS011;6676;45.192;5.722;2023-10-19T01:25:20;10.65;;;7.80;;
13222;SDS011;6676;45.192;5.722;2023-10-19T01:28:16;12.82;;;8.50;;
13222;SDS011;6676;45.192;5.722;2023-10-19T01:31:08;12.47;;;8.60;;
13222;SDS011;6676;45.192;5.722;2023-10-19T01:34:06;11.60;;;8.70;;
13222;SDS011;6676;45.192;5.722;2023-10-19T01:36:58;11.35;;;8.78;;
13222;SDS011;6676;45.192;5.722;2023-10-19T01:39:52;10.13;;;8.65;;
13222;SDS011;6676;45.192;5.722;2023-10-19T01:42:44;12.03;;;9.33;;
13222;SDS011;6676;45.192;5.722;2023-10-19T01:45:36;12.45;;;8.60;;
13222;SDS011;6676;45.192;5.722;2023-10-19T01:48:27;11.03;;;8.50;;
13222;SDS011;6676;45.192;5.722;2023-10-19T01:51:22;11.05;;;8.75;;
13222;SDS011;6676;45.192;5.722;2023-10-19T01:54:15;11.73;;;9.00;;
13222;SDS011;6676;45.192;5.722;2023-10-19T01:57:08;13.28;;;9.20;;
13222;SDS011;6676;45.192;5.722;2023-10-19T02:00:01;13.55;;;9.30;;
13222;SDS011;6676;45.192;5.722;2023-10-19T02:02:57;11.90;;;9.13;;
13222;SDS011;6676;45.192;5.722;2023-10-19T02:05:49;10.30;;;9.10;;
13222;SDS011;6676;45.192;5.722;2023-10-19T02:08:49;12.43;;;9.58;;
13222;SDS011;6676;45.192;5.722;2023-10-19T02:11:44;12.18;;;9.43;;
13222;SDS011;6676;45.192;5.722;2023-10-19T02:14:36;14.75;;;10.00;;
13222;SDS011;6676;45.192;5.722;2023-10-19T02:17:28;13.13;;;10.23;;
13222;SDS011;6676;45.192;5.722;2023-10-19T02:20:20;14.53;;;10.48;;
13222;SDS011;6676;45.192;5.722;2023-10-19T02:23:14;12.73;;;9.33;;
13222;SDS011;6676;45.192;5.722;2023-10-19T02:26:06;13.20;;;9.90;;
13222;SDS011;6676;45.192;5.722;2023-10-19T02:28:59;14.45;;;10.35;;
13222;SDS011;6676;45.192;5.722;2023-10-19T02:31:54;14.05;;;9.85;;
13222;SDS011;6676;45.192;5.722;2023-10-19T02:34:46;11.30;;;9.15;;
13222;SDS011;6676;45.192;5.722;2023-10-19T02:37:38;10.20;;;8.50;;
13222;SDS011;6676;45.192;5.722;2023-10-19T02:40:29;10.72;;;8.68;;
13222;SDS011;6676;45.192;5.722;2023-10-19T02:43:21;9.83;;;8.28;;
13222;SDS011;6676;45.192;5.722;2023-10-19T02:46:13;11.53;;;8.45;;
13222;SDS011;6676;45.192;5.722;2023-10-19T02:49:06;11.18;;;8.50;;
13222;SDS011;6676;45.192;5.722;2023-10-19T02:52:00;11.22;;;8.45;;
13222;SDS011;6676;45.192;5.722;2023-10-19T02:54:52;11.65;;;8.65;;
13222;SDS011;6676;45.192;5.722;2023-10-19T02:57:47;11.50;;;9.38;;
13222;SDS011;6676;45.192;5.722;2023-10-19T03:00:39;11.85;;;9.20;;
13222;SDS011;6676;45.192;5.722;2023-10-19T03:03:30;12.00;;;8.73;;
13222;SDS011;6676;45.192;5.722;2023-10-19T03:06:22;11.40;;;9.03;;
13222;SDS011;6676;45.192;5.722;2023-10-19T03:09:14;12.50;;;8.00;;
13222;SDS011;6676;45.192;5.722;2023-10-19T03:12:11;12.93;;;8.38;;
13222;SDS011;6676;45.192;5.722;2023-10-19T03:15:02;11.00;;;7.53;;
13222;SDS011;6676;45.192;5.722;2023-10-19T03:17:54;10.35;;;7.55;;
13222;SDS011;6676;45.192;5.722;2023-10-19T03:20:47;11.00;;;8.35;;
13222;SDS011;6676;45.192;5.722;2023-10-19T03:23:39;10.72;;;7.47;;
13222;SDS011;6676;45.192;5.722;2023-10-19T03:26:31;10.60;;;7.35;;
13222;SDS011;6676;45.192;5.722;2023-10-19T03:29:25;10.88;;;8.10;;
13222;SDS011;6676;45.192;5.722;2023-10-19T03:32:19;12.55;;;7.95;;
13222;SDS011;6676;45.192;5.722;2023-10-19T03:35:13;10.10;;;7.12;;
13222;SDS011;6676;45.192;5.722;2023-10-19T03:38:05;9.53;;;6.42;;
13222;SDS011;6676;45.192;5.722;2023-10-19T03:40:59;9.70;;;6.97;;
13222;SDS011;6676;45.192;5.722;2023-10-19T03:43:54;12.35;;;7.47;;
13222;SDS011;6676;45.192;5.722;2023-10-19T03:46:46;8.70;;;6.83;;
13222;SDS011;6676;45.192;5.722;2023-10-19T03:49:46;11.63;;;7.95;;
13222;SDS011;6676;45.192;5.722;2023-10-19T03:52:38;10.08;;;8.33;;
13222;SDS011;6676;45.192;5.722;2023-10-19T03:55:30;10.15;;;8.53;;
13222;SDS011;6676;45.192;5.722;2023-10-19T03:58:24;11.03;;;7.70;;
13222;SDS011;6676;45.192;5.722;2023-10-19T04:01:18;10.45;;;7.95;;
13222;SDS011;6676;45.192;5.722;2023-10-19T04:04:10;11.50;;;7.45;;
13222;SDS011;6676;45.192;5.722;2023-10-19T04:07:04;11.40;;;7.92;;
13222;SDS011;6676;45.192;5.722;2023-10-19T04:10:02;9.63;;;8.13;;
13222;SDS011;6676;45.192;5.722;2023-10-19T04:12:59;9.90;;;8.18;;
13222;SDS011;6676;45.192;5.722;2023-10-19T04:15:51;9.93;;;7.12;;
13222;SDS011;6676;45.192;5.722;2023-10-19T04:18:43;10.93;;;7.70;;
13222;SDS011;6676;45.192;5.722;2023-10-19T04:21:34;10.68;;;7.33;;
13222;SDS011;6676;45.192;5.722;2023-10-19T04:24:27;9.33;;;7.33;;
13222;SDS011;6676;45.192;5.722;2023-10-19T04:27:21;11.50;;;7.42;;
13222;SDS011;6676;45.192;5.722;2023-10-19T04:30:13;9.35;;;6.45;;
13222;SDS011;6676;45.192;5.722;2023-10-19T04:33:06;10.15;;;7.12;;
13222;SDS011;6676;45.192;5.722;2023-10-19T04:35:58;9.78;;;6.97;;
13222;SDS011;6676;45.192;5.722;2023-10-19T04:38:52;12.40;;;7.92;;
13222;SDS011;6676;45.192;5.722;2023-10-19T04:41:48;11.63;;;8.03;;
13222;SDS011;6676;45.192;5.722;2023-10-19T04:44:43;10.38;;;7.42;;
13222;SDS011;6676;45.192;5.722;2023-10-19T04:47:37;8.75;;;7.12;;
13222;SDS011;6676;45.192;5.722;2023-10-19T04:50:29;11.22;;;7.12;;
13222;SDS011;6676;45.192;5.722;2023-10-19T04:53:21;10.05;;;6.95;;
13222;SDS011;6676;45.192;5.722;2023-10-19T04:56:13;9.55;;;7.10;;
13222;SDS011;6676;45.192;5.722;2023-10-19T04:59:08;9.88;;;7.72;;
13222;SDS011;6676;45.192;5.722;2023-10-19T05:02:02;9.60;;;7.20;;
13222;SDS011;6676;45.192;5.722;2023-10-19T05:04:54;10.90;;;7.42;;
13222;SDS011;6676;45.192;5.722;2023-10-19T05:07:48;9.48;;;8.13;;
13222;SDS011;6676;45.192;5.722;2023-10-19T05:10:40;9.98;;;7.92;;
13222;SDS011;6676;45.192;5.722;2023-10-19T05:13:32;10.53;;;8.20;;
13222;SDS011;6676;45.192;5.722;2023-10-19T05:16:25;10.30;;;7.55;;
13222;SDS011;6676;45.192;5.722;2023-10-19T05:19:17;10.40;;;7.78;;
13222;SDS011;6676;45.192;5.722;2023-10-19T05:22:09;10.63;;;7.85;;
13222;SDS011;6676;45.192;5.722;2023-10-19T05:25:01;11.63;;;7.90;;
13222;SDS011;6676;45.192;5.722;2023-10-19T05:27:53;12.60;;;7.58;;
13222;SDS011;6676;45.192;5.722;2023-10-19T05:30:45;9.23;;;7.83;;
13222;SDS011;6676;45.192;5.722;2023-10-19T05:33:38;10.60;;;7.10;;
13222;SDS011;6676;45.192;5.722;2023-10-19T05:36:33;11.08;;;7.47;;
13222;SDS011;6676;45.192;5.722;2023-10-19T05:39:25;9.43;;;7.05;;
13222;SDS011;6676;45.192;5.722;2023-10-19T05:42:20;10.32;;;7.80;;
13222;SDS011;6676;45.192;5.722;2023-10-19T05:45:14;12.07;;;7.67;;
13222;SDS011;6676;45.192;5.722;2023-10-19T05:48:07;10.60;;;7.85;;
13222;SDS011;6676;45.192;5.722;2023-10-19T05:51:05;12.23;;;7.70;;
13222;SDS011;6676;45.192;5.722;2023-10-19T05:57:04;10.18;;;7.53;;
13222;SDS011;6676;45.192;5.722;2023-10-19T05:59:57;13.00;;;8.08;;
13222;SDS011;6676;45.192;5.722;2023-10-19T06:02:51;10.30;;;7.92;;
13222;SDS011;6676;45.192;5.722;2023-10-19T06:05:48;12.88;;;8.08;;
13222;SDS011;6676;45.192;5.722;2023-10-19T06:08:44;13.58;;;8.18;;
13222;SDS011;6676;45.192;5.722;2023-10-19T06:11:40;12.60;;;7.72;;
13222;SDS011;6676;45.192;5.722;2023-10-19T06:14:32;11.83;;;8.00;;
13222;SDS011;6676;45.192;5.722;2023-10-19T06:17:24;9.63;;;6.80;;
13222;SDS011;6676;45.192;5.722;2023-10-19T06:20:16;11.08;;;7.45;;
13222;SDS011;6676;45.192;5.722;2023-10-19T06:23:15;10.70;;;6.95;;
13222;SDS011;6676;45.192;5.722;2023-10-19T06:26:11;14.43;;;7.00;;
13222;SDS011;6676;45.192;5.722;2023-10-19T06:29:04;13.62;;;7.28;;
13222;SDS011;6676;45.192;5.722;2023-10-19T06:31:57;8.23;;;6.37;;
13222;SDS011;6676;45.192;5.722;2023-10-19T06:34:49;9.35;;;6.28;;
13222;SDS011;6676;45.192;5.722;2023-10-19T06:37:41;11.40;;;6.78;;
13222;SDS011;6676;45.192;5.722;2023-10-19T06:40:34;13.62;;;6.90;;
13222;SDS011;6676;45.192;5.722;2023-10-19T06:43:26;10.82;;;7.15;;
13222;SDS011;6676;45.192;5.722;2023-10-19T06:46:21;9.30;;;6.15;;
13222;SDS011;6676;45.192;5.722;2023-10-19T06:49:26;9.13;;;6.55;;
13222;SDS011;6676;45.192;5.722;2023-10-19T06:52:20;7.97;;;5.33;;
13222;SDS011;6676;45.192;5.722;2023-10-19T06:55:13;9.93;;;5.45;;
13222;SDS011;6676;45.192;5.722;2023-10-19T06:58:07;10.40;;;6.50;;
13222;SDS011;6676;45.192;5.722;2023-10-19T07:01:01;9.00;;;5.83;;
13222;SDS011;6676;45.192;5.722;2023-10-19T07:03:56;9.50;;;5.50;;
13222;SDS011;6676;45.192;5.722;2023-10-19T07:06:48;7.60;;;5.47;;
13222;SDS011;6676;45.192;5.722;2023-10-19T07:09:40;11.50;;;5.15;;
13222;SDS011;6676;45.192;5.722;2023-10-19T07:12:32;7.78;;;5.03;;
13222;SDS011;6676;45.192;5.722;2023-10-19T07:15:25;9.25;;;5.35;;
13222;SDS011;6676;45.192;5.722;2023-10-19T07:18:19;6.70;;;4.92;;
13222;SDS011;6676;45.192;5.722;2023-10-19T07:21:11;5.85;;;4.72;;
13222;SDS011;6676;45.192;5.722;2023-10-19T07:24:02;6.97;;;4.40;;
13222;SDS011;6676;45.192;5.722;2023-10-19T07:26:56;9.25;;;4.75;;
13222;SDS011;6676;45.192;5.722;2023-10-19T07:29:53;10.60;;;5.00;;
13222;SDS011;6676;45.192;5.722;2023-10-19T07:32:48;8.75;;;4.65;;
13222;SDS011;6676;45.192;5.722;2023-10-19T07:35:42;8.40;;;4.55;;
13222;SDS011;6676;45.192;5.722;2023-10-19T07:38:37;8.55;;;4.80;;
13222;SDS011;6676;45.192;5.722;2023-10-19T07:41:31;9.43;;;4.60;;
13222;SDS011;6676;45.192;5.722;2023-10-19T07:44:24;10.55;;;5.33;;
13222;SDS011;6676;45.192;5.722;2023-10-19T07:47:18;9.18;;;4.90;;
13222;SDS011;6676;45.192;5.722;2023-10-19T07:50:10;7.53;;;4.70;;
13222;SDS011;6676;45.192;5.722;2023-10-19T07:53:06;11.73;;;5.05;;
13222;SDS011;6676;45.192;5.722;2023-10-19T07:55:59;7.87;;;5.10;;
13222;SDS011;6676;45.192;5.722;2023-10-19T07:58:51;11.05;;;5.30;;
13222;SDS011;6676;45.192;5.722;2023-10-19T08:01:42;10.20;;;4.72;;
13222;SDS011;6676;45.192;5.722;2023-10-19T08:04:36;10.15;;;4.53;;
13222;SDS011;6676;45.192;5.722;2023-10-19T08:07:28;6.08;;;4.00;;
13222;SDS011;6676;45.192;5.722;2023-10-19T08:10:19;9.03;;;4.20;;
13222;SDS011;6676;45.192;5.722;2023-10-19T08:13:11;6.22;;;3.83;;
13222;SDS011;6676;45.192;5.722;2023-10-19T08:16:04;7.85;;;4.08;;
13222;SDS011;6676;45.192;5.722;2023-10-19T08:18:57;8.45;;;3.92;;
13222;SDS011;6676;45.192;5.722;2023-10-19T08:21:48;6.85;;;3.47;;
13222;SDS011;6676;45.192;5.722;2023-10-19T08:24:40;6.83;;;4.03;;
13222;SDS011;6676;45.192;5.722;2023-10-19T08:27:34;4.90;;;4.00;;
13222;SDS011;6676;45.192;5.722;2023-10-19T08:30:26;7.03;;;3.33;;
13222;SDS011;6676;45.192;5.722;2023-10-19T08:33:18;7.10;;;4.30;;
13222;SDS011;6676;45.192;5.722;2023-10-19T08:36:18;10.75;;;3.60;;
13222;SDS011;6676;45.192;5.722;2023-10-19T08:39:09;5.12;;;2.83;;
13222;SDS011;6676;45.192;5.722;2023-10-19T08:42:02;8.03;;;3.62;;
13222;SDS011;6676;45.192;5.722;2023-10-19T08:44:54;8.48;;;3.62;;
13222;SDS011;6676;45.192;5.722;2023-10-19T08:47:48;6.33;;;3.85;;
13222;SDS011;6676;45.192;5.722;2023-10-19T08:50:44;7.65;;;4.20;;
13222;SDS011;6676;45.192;5.722;2023-10-19T08:53:37;9.45;;;3.83;;
13222;SDS011;6676;45.192;5.722;2023-10-19T08:56:29;5.45;;;3.20;;
13222;SDS011;6676;45.192;5.722;2023-10-19T08:59:22;11.28;;;3.40;;
13222;SDS011;6676;45.192;5.722;2023-10-19T09:02:14;7.12;;;4.65;;
13222;SDS011;6676;45.192;5.722;2023-10-19T09:05:08;6.05;;;2.83;;
13222;SDS011;6676;45.192;5.722;2023-10-19T09:08:01;8.60;;;3.33;;
13222;SDS011;6676;45.192;5.722;2023-10-19T09:10:55;7.37;;;3.55;;
13222;SDS011;6676;45.192;5.722;2023-10-19T09:13:47;6.15;;;4.10;;
13222;SDS011;6676;45.192;5.722;2023-10-19T09:16:52;7.37;;;4.10;;
13222;SDS011;6676;45.192;5.722;2023-10-19T09:19:46;7.40;;;3.83;;
13222;SDS011;6676;45.192;5.722;2023-10-19T09:25:35;8.45;;;3.87;;
13222;SDS011;6676;45.192;5.722;2023-10-19T09:28:28;5.80;;;4.08;;
13222;SDS011;6676;45.192;5.722;2023-10-19T09:31:23;9.08;;;3.87;;
13222;SDS011;6676;45.192;5.722;2023-10-19T09:34:15;7.15;;;3.47;;
13222;SDS011;6676;45.192;5.722;2023-10-19T09:37:07;6.90;;;3.52;;
13222;SDS011;6676;45.192;5.722;2023-10-19T09:39:59;7.45;;;3.90;;
13222;SDS011;6676;45.192;5.722;2023-10-19T09:42:53;9.95;;;4.50;;
13222;SDS011;6676;45.192;5.722;2023-10-19T09:45:47;9.63;;;3.92;;
13222;SDS011;6676;45.192;5.722;2023-10-19T09:48:40;6.03;;;3.22;;
13222;SDS011;6676;45.192;5.722;2023-10-19T09:51:35;7.67;;;3.77;;
13222;SDS011;6676;45.192;5.722;2023-10-19T09:54:27;9.05;;;3.70;;
13222;SDS011;6676;45.192;5.722;2023-10-19T09:57:25;7.08;;;3.42;;
13222;SDS011;6676;45.192;5.722;2023-10-19T10:00:18;4.42;;;3.02;;
13222;SDS011;6676;45.192;5.722;2023-10-19T10:09:55;11.63;;;3.75;;
13222;SDS011;6676;45.192;5.722;2023-10-19T10:12:47;7.87;;;3.42;;
13222;SDS011;6676;45.192;5.722;2023-10-19T10:15:39;8.95;;;4.37;;
13222;SDS011;6676;45.192;5.722;2023-10-19T10:18:32;7.35;;;3.67;;
13222;SDS011;6676;45.192;5.722;2023-10-19T10:21:25;6.15;;;3.12;;
13222;SDS011;6676;45.192;5.722;2023-10-19T10:24:20;5.58;;;2.60;;
13222;SDS011;6676;45.192;5.722;2023-10-19T10:27:13;5.47;;;2.50;;
13222;SDS011;6676;45.192;5.722;2023-10-19T10:30:09;7.92;;;3.00;;
13222;SDS011;6676;45.192;5.722;2023-10-19T10:33:08;9.18;;;3.00;;
13222;SDS011;6676;45.192;5.722;2023-10-19T10:36:06;7.85;;;3.80;;
13222;SDS011;6676;45.192;5.722;2023-10-19T10:39:01;7.90;;;3.77;;
13222;SDS011;6676;45.192;5.722;2023-10-19T10:41:58;5.67;;;2.62;;
13222;SDS011;6676;45.192;5.722;2023-10-19T10:44:53;6.30;;;3.10;;
13222;SDS011;6676;45.192;5.722;2023-10-19T10:47:45;6.90;;;3.60;;
13222;SDS011;6676;45.192;5.722;2023-10-19T10:50:39;9.50;;;3.72;;
13222;SDS011;6676;45.192;5.722;2023-10-19T10:53:33;8.35;;;4.10;;
13222;SDS011;6676;45.192;5.722;2023-10-19T10:56:29;5.37;;;2.20;;
13222;SDS011;6676;45.192;5.722;2023-10-19T10:59:22;3.83;;;1.75;;
13222;SDS011;6676;45.192;5.722;2023-10-19T11:02:18;3.02;;;2.22;;
13222;SDS011;6676;45.192;5.722;2023-10-19T11:05:10;4.28;;;1.45;;
13222;SDS011;6676;45.192;5.722;2023-10-19T11:08:07;1.92;;;1.40;;
13222;SDS011;6676;45.192;5.722;2023-10-19T11:11:06;4.25;;;2.05;;
13222;SDS011;6676;45.192;5.722;2023-10-19T11:14:09;2.33;;;1.20;;
13222;SDS011;6676;45.192;5.722;2023-10-19T11:17:12;4.35;;;1.40;;
13222;SDS011;6676;45.192;5.722;2023-10-19T11:20:06;4.00;;;1.60;;
13222;SDS011;6676;45.192;5.722;2023-10-19T11:23:02;3.33;;;1.40;;
13222;SDS011;6676;45.192;5.722;2023-10-19T11:25:58;1.98;;;0.75;;
13222;SDS011;6676;45.192;5.722;2023-10-19T11:28:57;3.00;;;1.20;;
13222;SDS011;6676;45.192;5.722;2023-10-19T11:31:57;1.67;;;0.80;;
13222;SDS011;6676;45.192;5.722;2023-10-19T11:34:57;1.90;;;0.60;;
13222;SDS011;6676;45.192;5.722;2023-10-19T11:37:50;2.02;;;0.50;;
13222;SDS011;6676;45.192;5.722;2023-10-19T11:40:44;2.77;;;0.50;;
13222;SDS011;6676;45.192;5.722;2023-10-19T11:43:35;0.53;;;0.37;;
13222;SDS011;6676;45.192;5.722;2023-10-19T11:46:27;1.15;;;0.42;;
13222;SDS011;6676;45.192;5.722;2023-10-19T11:49:19;2.20;;;0.53;;
13222;SDS011;6676;45.192;5.722;2023-10-19T11:52:13;2.60;;;0.65;;
13222;SDS011;6676;45.192;5.722;2023-10-19T11:55:06;2.15;;;0.57;;
13222;SDS011;6676;45.192;5.722;2023-10-19T11:57:58;1.72;;;0.60;;
13222;SDS011;6676;45.192;5.722;2023-10-19T12:00:51;1.20;;;0.35;;
13222;SDS011;6676;45.192;5.722;2023-10-19T20:45:50;0.72;;;0.30;;
13222;SDS011;6676;45.192;5.722;2023-10-19T20:48:42;0.95;;;0.40;;
13222;SDS011;6676;45.192;5.722;2023-10-19T20:51:34;0.23;;;0.20;;
13222;SDS011;6676;45.192;5.722;2023-10-19T20:54:25;0.85;;;0.30;;
13222;SDS011;6676;45.192;5.722;2023-10-19T20:57:17;0.68;;;0.40;;
13222;SDS011;6676;45.192;5.722;2023-10-19T21:00:09;2.30;;;0.30;;
13222;SDS011;6676;45.192;5.722;2023-10-19T21:03:04;1.02;;;0.45;;
13222;SDS011;6676;45.192;5.722;2023-10-19T21:05:56;1.65;;;0.40;;
13222;SDS011;6676;45.192;5.722;2023-10-19T21:08:47;0.93;;;0.40;;
13222;SDS011;6676;45.192;5.722;2023-10-19T21:11:38;2.70;;;0.60;;
13222;SDS011;6676;45.192;5.722;2023-10-19T21:14:30;1.50;;;0.20;;
13222;SDS011;6676;45.192;5.722;2023-10-19T21:17:22;0.72;;;0.20;;
13222;SDS011;6676;45.192;5.722;2023-10-19T21:20:14;0.78;;;0.20;;
13222;SDS011;6676;45.192;5.722;2023-10-19T21:23:06;1.07;;;0.30;;
13222;SDS011;6676;45.192;5.722;2023-10-19T21:25:58;1.10;;;0.20;;
13222;SDS011;6676;45.192;5.722;2023-10-19T21:28:50;1.45;;;0.28;;
13222;SDS011;6676;45.192;5.722;2023-10-19T21:31:41;0.78;;;0.30;;
13222;SDS011;6676;45.192;5.722;2023-10-19T21:34:33;0.85;;;0.20;;
13222;SDS011;6676;45.192;5.722;2023-10-19T21:37:24;0.40;;;0.10;;
13222;SDS011;6676;45.192;5.722;2023-10-19T21:40:16;0.60;;;0.20;;
13222;SDS011;6676;45.192;5.722;2023-10-19T21:43:08;0.35;;;0.20;;
13222;SDS011;6676;45.192;5.722;2023-10-19T21:46:01;0.37;;;0.10;;
13222;SDS011;6676;45.192;5.722;2023-10-19T21:48:52;0.50;;;0.20;;
13222;SDS011;6676;45.192;5.722;2023-10-19T21:51:44;0.68;;;0.20;;
13222;SDS011;6676;45.192;5.722;2023-10-19T21:54:36;0.75;;;0.10;;
13222;SDS011;6676;45.192;5.722;2023-10-19T21:57:27;1.32;;;0.30;;
13222;SDS011;6676;45.192;5.722;2023-10-19T22:00:19;0.65;;;0.30;;
13222;SDS011;6676;45.192;5.722;2023-10-19T22:03:15;0.45;;;0.10;;
13222;SDS011;6676;45.192;5.722;2023-10-19T22:06:06;0.40;;;0.10;;
13222;SDS011;6676;45.192;5.722;2023-10-19T22:08:58;0.53;;;0.10;;
13222;SDS011;6676;45.192;5.722;2023-10-19T22:11:49;0.75;;;0.20;;
13222;SDS011;6676;45.192;5.722;2023-10-19T22:14:41;0.30;;;0.10;;
13222;SDS011;6676;45.192;5.722;2023-10-19T22:17:33;0.13;;;0.05;;
13222;SDS011;6676;45.192;5.722;2023-10-19T22:20:24;0.65;;;0.20;;
13222;SDS011;6676;45.192;5.722;2023-10-19T22:23:16;1.02;;;0.10;;
13222;SDS011;6676;45.192;5.722;2023-10-19T22:26:08;0.03;;;0.00;;
13222;SDS011;6676;45.192;5.722;2023-10-19T22:28:59;1.45;;;1.10;;
13222;SDS011;6676;45.192;5.722;2023-10-19T22:31:52;0.37;;;0.20;;
13222;SDS011;6676;45.192;5.722;2023-10-19T22:34:44;0.70;;;0.10;;
13222;SDS011;6676;45.192;5.722;2023-10-19T22:37:35;0.05;;;0.05;;
13222;SDS011;6676;45.192;5.722;2023-10-19T22:40:28;0.65;;;0.15;;
13222;SDS011;6676;45.192;5.722;2023-10-19T22:43:19;0.10;;;0.05;;
13222;SDS011;6676;45.192;5.722;2023-10-19T22:46:11;0.10;;;0.05;;
13222;SDS011;6676;45.192;5.722;2023-10-19T22:49:06;0.30;;;0.10;;
13222;SDS011;6676;45.192;5.722;2023-10-19T22:52:02;0.47;;;0.10;;
13222;SDS011;6676;45.192;5.722;2023-10-19T22:54:58;0.10;;;0.00;;
13222;SDS011;6676;45.192;5.722;2023-10-19T22:57:51;0.10;;;0.10;;
13222;SDS011;6676;45.192;5.722;2023-10-19T23:00:43;0.40;;;0.17;;
13222;SDS011;6676;45.192;5.722;2023-10-19T23:03:37;0.72;;;0.08;;
13222;SDS011;6676;45.192;5.722;2023-10-19T23:06:32;0.93;;;0.20;;
13222;SDS011;6676;45.192;5.722;2023-10-19T23:09:28;1.10;;;0.17;;
13222;SDS011;6676;45.192;5.722;2023-10-19T23:12:24;0.62;;;0.15;;
13222;SDS011;6676;45.192;5.722;2023-10-19T23:15:18;2.17;;;0.20;;
13222;SDS011;6676;45.192;5.722;2023-10-19T23:18:22;0.30;;;0.20;;
13222;SDS011;6676;45.192;5.722;2023-10-19T23:21:15;0.15;;;0.00;;
13222;SDS011;6676;45.192;5.722;2023-10-19T23:24:10;0.28;;;0.10;;
13222;SDS011;6676;45.192;5.722;2023-10-19T23:27:06;0.80;;;0.13;;
13222;SDS011;6676;45.192;5.722;2023-10-19T23:30:02;1.10;;;0.10;;
13222;SDS011;6676;45.192;5.722;2023-10-19T23:33:00;0.75;;;0.10;;
13222;SDS011;6676;45.192;5.722;2023-10-19T23:35:56;0.17;;;0.10;;
13222;SDS011;6676;45.192;5.722;2023-10-19T23:38:48;0.17;;;0.10;;
13222;SDS011;6676;45.192;5.722;2023-10-19T23:41:42;0.60;;;0.20;;
13222;SDS011;6676;45.192;5.722;2023-10-19T23:44:35;1.07;;;0.10;;
13222;SDS011;6676;45.192;5.722;2023-10-19T23:47:30;0.35;;;0.10;;
13222;SDS011;6676;45.192;5.722;2023-10-19T23:50:28;0.30;;;0.20;;
13222;SDS011;6676;45.192;5.722;2023-10-19T23:53:26;0.10;;;0.08;;
13222;SDS011;6676;45.192;5.722;2023-10-19T23:56:21;1.25;;;0.20;;
13222;SDS011;6676;45.192;5.722;2023-10-19T23:59:15;0.78;;;0.20;;
